Time;durP1;ratioP1;P1;durP2;ratioP2;P2;SDS_P1;SDS_P2;PMS_P1;PMS_P2;Temp;Humidity;BMP_temperature;BMP_pressure;BME280_temperature;BME280_humidity;BME280_pressure;Samples;Min_cycle;Max_cycle;Signal;HPM_P1;HPM_P2
2023/10/03 00:00:24;;;;;;;35.40;18.50;;;17.90;17.50;;;;;;4690710;30;20103;-85
2023/10/03 00:02:57;;;;;;;37.97;20.38;;;;;;;;;;4705376;30;20057;-86
2023/10/03 00:05:33;;;;;;;32.28;19.90;;;17.90;18.50;;;;;;4704897;30;20117;-86
2023/10/03 00:08:01;;;;;;;31.88;19.63;;;17.90;21.20;;;;;;4718745;30;20114;-86
2023/10/03 00:10:30;;;;;;;35.75;19.35;;;;;;;;;;4689810;30;20053;-86
2023/10/03 00:12:57;;;;;;;37.75;22.08;;;;;;;;;;4703613;30;20082;-85
2023/10/03 00:15:24;;;;;;;35.60;20.52;;;18.10;34.70;;;;;;4704076;30;20419;-86
2023/10/03 00:17:51;;;;;;;36.83;19.98;;;18.00;20.30;;;;;;4689649;30;20060;-84
2023/10/03 00:20:18;;;;;;;35.63;19.98;;;;;;;;;;4703746;30;20114;-83
2023/10/03 00:22:48;;;;;;;37.45;19.00;;;;;;;;;;4703929;30;20095;-84
2023/10/03 00:25:18;;;;;;;39.30;20.33;;;17.90;21.80;;;;;;4704196;30;20092;-86
2023/10/03 00:28:05;;;;;;;38.17;19.27;;;;;;;;;;4703792;30;20481;-84
2023/10/03 00:30:31;;;;;;;36.60;20.13;;;;;;;;;;4714387;30;20139;-94
2023/10/03 00:32:58;;;;;;;36.22;20.13;;;;;;;;;;4702745;30;20078;-93
2023/10/03 00:35:26;;;;;;;39.25;20.80;;;;;;;;;;4696516;30;20053;-85
2023/10/03 00:37:53;;;;;;;36.58;21.73;;;;;;;;;;4719430;30;20131;-90
2023/10/03 00:42:47;;;;;;;32.80;20.33;;;;;;;;;;4720191;30;20068;-88
2023/10/03 00:45:19;;;;;;;38.92;20.80;;;;;;;;;;4705707;30;20048;-93
2023/10/03 00:47:48;;;;;;;42.78;22.42;;;18.10;22.50;;;;;;4723809;30;20103;-87
2023/10/03 00:50:16;;;;;;;39.10;21.05;;;;;;;;;;4694635;30;20060;-90
2023/10/03 00:52:45;;;;;;;43.40;23.60;;;17.90;23.10;;;;;;4706533;30;20052;-90
2023/10/03 00:55:11;;;;;;;36.55;19.75;;;;;;;;;;4691315;30;20048;-92
2023/10/03 00:57:39;;;;;;;33.90;19.35;;;;;;;;;;4690697;30;20060;-92
2023/10/03 01:00:15;;;;;;;38.33;19.90;;;;;;;;;;4705103;30;20059;-91
2023/10/03 01:02:48;;;;;;;39.72;21.27;;;17.90;24.80;;;;;;4691535;30;20061;-93
2023/10/03 01:05:16;;;;;;;31.77;20.00;;;;;;;;;;4704400;30;20067;-86
2023/10/03 01:07:44;;;;;;;41.65;19.02;;;;;;;;;;4705946;30;20061;-87
2023/10/03 01:10:17;;;;;;;33.88;19.52;;;;;;;;;;4705367;30;20073;-89
2023/10/03 01:12:46;;;;;;;34.80;18.87;;;17.80;21.10;;;;;;4691298;30;20148;-89
2023/10/03 01:15:19;;;;;;;37.58;19.90;;;;;;;;;;4719246;30;20291;-87
2023/10/03 01:17:49;;;;;;;33.10;19.67;;;;;;;;;;4705412;30;20053;-93
2023/10/03 01:20:25;;;;;;;33.15;19.00;;;;;;;;;;4707552;30;20052;-83
2023/10/03 01:22:52;;;;;;;31.92;17.67;;;17.80;22.30;;;;;;4694859;30;20048;-94
2023/10/03 01:25:20;;;;;;;35.92;19.10;;;;;;;;;;4723934;30;20055;-85
2023/10/03 01:27:46;;;;;;;41.90;18.85;;;;;;;;;;4706562;30;20052;-88
2023/10/03 01:30:12;;;;;;;38.45;21.40;;;;;;;;;;4720186;30;20131;-92
2023/10/03 01:32:50;;;;;;;33.50;18.65;;;18.00;22.20;;;;;;4735606;30;20103;-89
2023/10/03 01:35:16;;;;;;;35.28;18.63;;;;;;;;;;4703458;30;20048;-86
2023/10/03 01:37:45;;;;;;;41.90;18.52;;;;;;;;;;4733662;30;20053;-85
2023/10/03 01:40:16;;;;;;;34.70;18.90;;;;;;;;;;4733334;30;20525;-86
2023/10/03 01:42:46;;;;;;;34.83;19.00;;;18.00;21.10;;;;;;4704338;30;20065;-84
2023/10/03 01:45:17;;;;;;;32.53;17.25;;;18.10;33.00;;;;;;4717871;30;20220;-84
2023/10/03 01:47:49;;;;;;;38.72;19.45;;;17.90;32.20;;;;;;4717967;30;20061;-86
2023/10/03 01:50:19;;;;;;;36.33;21.13;;;17.90;16.60;;;;;;4718447;30;20056;-86
2023/10/03 01:52:46;;;;;;;34.67;19.23;;;18.10;14.70;;;;;;4706206;30;20053;-87
2023/10/03 01:55:13;;;;;;;37.05;18.38;;;17.90;15.10;;;;;;4706521;30;20765;-88
2023/10/03 01:57:40;;;;;;;38.45;18.00;;;;;;;;;;4706010;30;20048;-87
2023/10/03 02:00:26;;;;;;;34.08;18.10;;;;;;;;;;4706305;30;20049;-87
2023/10/03 02:03:07;;;;;;;30.45;18.10;;;18.00;18.90;;;;;;4720532;30;20048;-86
2023/10/03 02:05:36;;;;;;;34.25;18.15;;;17.70;17.20;;;;;;4720598;30;20060;-84
2023/10/03 02:08:07;;;;;;;35.20;18.77;;;;;;;;;;4706759;30;20088;-88
2023/10/03 02:10:34;;;;;;;34.15;18.40;;;;;;;;;;4706963;30;20045;-89
2023/10/03 02:13:01;;;;;;;34.78;17.27;;;;;;;;;;4721453;30;20151;-89
2023/10/03 02:15:27;;;;;;;37.40;18.25;;;;;;;;;;4707521;30;20059;-87
2023/10/03 02:17:57;;;;;;;32.88;17.60;;;17.90;16.20;;;;;;4707922;30;20057;-91
2023/10/03 02:20:25;;;;;;;35.25;18.85;;;;;;;;;;4722525;30;20068;-90
2023/10/03 02:22:55;;;;;;;36.17;18.15;;;17.70;15.70;;;;;;4709397;30;20065;-87
2023/10/03 02:25:28;;;;;;;32.85;17.30;;;17.70;17.30;;;;;;4709143;30;20049;-91
2023/10/03 02:27:56;;;;;;;38.80;18.33;;;17.80;13.40;;;;;;4707945;30;20457;-93
2023/10/03 02:30:23;;;;;;;37.95;18.90;;;17.60;14.30;;;;;;4723623;30;20088;-91
2023/10/03 02:32:54;;;;;;;34.50;16.77;;;17.90;15.50;;;;;;4693749;30;20063;-88
2023/10/03 02:35:25;;;;;;;29.25;16.73;;;17.70;15.30;;;;;;4706893;30;20550;-88
2023/10/03 02:37:57;;;;;;;35.20;17.52;;;;;;;;;;4721266;30;20187;-91
2023/10/03 02:40:27;;;;;;;29.95;16.40;;;;;;;;;;4706371;30;20078;-92
2023/10/03 02:42:54;;;;;;;37.88;17.20;;;;;;;;;;4707462;30;20095;-88
2023/10/03 02:45:23;;;;;;;33.92;18.23;;;17.60;8.70;;;;;;4707727;30;20139;-92
2023/10/03 02:47:56;;;;;;;31.17;16.80;;;18.00;13.60;;;;;;4707248;30;20053;-92
2023/10/03 02:50:27;;;;;;;38.22;17.63;;;;;;;;;;4693576;30;20063;-92
2023/10/03 02:52:58;;;;;;;26.25;15.70;;;;;;;;;;4707951;30;20466;-95
2023/10/03 02:55:24;;;;;;;27.17;16.02;;;;;;;;;;4709242;30;20049;-94
2023/10/03 02:57:51;;;;;;;30.45;16.17;;;;;;;;;;4739725;30;20096;-89
2023/10/03 03:00:18;;;;;;;35.15;16.23;;;;;;;;;;4740846;30;20044;-90
2023/10/03 03:02:50;;;;;;;32.53;15.50;;;;;;;;;;4707998;30;20052;-89
2023/10/03 03:05:17;;;;;;;29.40;16.33;;;17.70;23.50;;;;;;4692089;30;20100;-85
2023/10/03 03:07:48;;;;;;;30.08;16.08;;;;;;;;;;4719840;30;20048;-87
2023/10/03 03:10:14;;;;;;;31.55;15.05;;;;;;;;;;4705210;30;20099;-84
2023/10/03 03:12:44;;;;;;;26.92;14.18;;;;;;;;;;4719492;30;20084;-86
2023/10/03 03:15:23;;;;;;;33.35;16.55;;;17.80;11.90;;;;;;4719483;30;20044;-89
2023/10/03 03:17:53;;;;;;;30.42;16.13;;;;;;;;;;4706392;30;20048;-85
2023/10/03 03:20:28;;;;;;;28.08;14.10;;;17.80;9.10;;;;;;4704628;30;20173;-84
2023/10/03 03:22:59;;;;;;;31.90;13.60;;;;;;;;;;4705808;30;20059;-85
2023/10/03 03:25:36;;;;;;;26.83;14.32;;;;;;;;;;4690875;30;20136;-85
2023/10/03 03:28:04;;;;;;;27.40;15.27;;;;;;;;;;4718929;30;20067;-85
2023/10/03 03:32:59;;;;;;;25.58;14.60;;;;;;;;;;4734631;30;20060;-86
2023/10/03 03:35:26;;;;;;;31.38;14.75;;;;;;;;;;4718998;30;20056;-85
2023/10/03 03:37:58;;;;;;;27.95;14.43;;;;;;;;;;4734870;30;20095;-86
2023/10/03 03:40:32;;;;;;;28.70;14.77;;;;;;;;;;4719234;30;20468;-86
2023/10/03 03:43:00;;;;;;;28.55;13.00;;;;;;;;;;4734643;30;20104;-86
2023/10/03 03:45:26;;;;;;;32.25;15.20;;;18.40;2.60;;;;;;4718769;30;20056;-86
2023/10/03 03:47:54;;;;;;;34.22;14.68;;;;;;;;;;4734972;30;20060;-87
2023/10/03 03:50:21;;;;;;;32.58;15.93;;;;;;;;;;4734427;30;20087;-87
2023/10/03 03:52:49;;;;;;;27.00;14.32;;;;;;;;;;4704326;30;20075;-86
2023/10/03 03:55:17;;;;;;;25.50;12.63;;;;;;;;;;4704575;30;20563;-85
2023/10/03 03:57:43;;;;;;;26.02;13.10;;;;;;;;;;4704306;30;20137;-82
2023/10/03 04:00:20;;;;;;;25.00;13.35;;;18.50;1.00;;;;;;4705100;30;20041;-86
2023/10/03 04:02:48;;;;;;;26.33;14.02;;;;;;;;;;4691645;30;20110;-85
2023/10/03 04:05:17;;;;;;;29.98;14.73;;;18.30;11.20;;;;;;4706017;30;20109;-85
2023/10/03 04:07:43;;;;;;;29.17;12.45;;;;;;;;;;4705257;30;20052;-85
2023/10/03 04:10:10;;;;;;;28.08;14.48;;;;;;;;;;4706095;30;20052;-88
2023/10/03 04:12:42;;;;;;;29.35;14.55;;;;;;;;;;4704328;30;20068;-83
2023/10/03 04:15:12;;;;;;;27.30;12.98;;;18.50;9.60;;;;;;4718815;30;20052;-87
2023/10/03 04:17:42;;;;;;;27.95;14.18;;;18.40;1.00;;;;;;4704677;30;20056;-90
2023/10/03 04:20:19;;;;;;;25.63;12.82;;;;;;;;;;4719490;30;20052;-89
2023/10/03 04:22:46;;;;;;;32.72;15.55;;;18.60;1.00;;;;;;4712917;30;20056;-83
2023/10/03 04:25:19;;;;;;;29.75;14.07;;;;;;;;;;4704728;30;20518;-84
2023/10/03 04:27:49;;;;;;;25.67;13.82;;;18.50;8.70;;;;;;4704167;30;20056;-86
2023/10/03 04:30:16;;;;;;;31.80;14.30;;;18.60;1.00;;;;;;4676393;30;20080;-85
2023/10/03 04:32:43;;;;;;;28.85;13.98;;;;;;;;;;4704538;30;20574;-86
2023/10/03 04:35:17;;;;;;;30.58;14.05;;;18.40;1.00;;;;;;4704775;30;20052;-82
2023/10/03 04:37:44;;;;;;;25.50;13.68;;;;;;;;;;4718980;30;20147;-87
2023/10/03 04:40:22;;;;;;;28.63;13.55;;;18.50;1.00;;;;;;4704276;30;20045;-84
2023/10/03 04:42:52;;;;;;;25.35;13.23;;;;;;;;;;4719438;30;20423;-86
2023/10/03 04:45:19;;;;;;;27.95;14.25;;;;;;;;;;4719966;30;20055;-86
2023/10/03 04:47:47;;;;;;;23.02;11.57;;;;;;;;;;4705364;30;20210;-85
2023/10/03 04:50:19;;;;;;;26.45;13.10;;;18.40;1.00;;;;;;4704624;30;20049;-85
2023/10/03 04:52:48;;;;;;;27.55;12.27;;;18.50;1.00;;;;;;4719562;30;20056;-85
2023/10/03 04:55:16;;;;;;;26.80;12.15;;;18.50;1.50;;;;;;4719532;30;20133;-84
2023/10/03 04:57:43;;;;;;;32.03;14.48;;;;;;;;;;4718938;30;20448;-85
2023/10/03 05:00:11;;;;;;;25.73;12.25;;;;;;;;;;4704808;30;20041;-84
2023/10/03 05:02:37;;;;;;;25.05;12.70;;;;;;;;;;4719206;30;20546;-81
2023/10/03 05:05:03;;;;;;;22.73;11.55;;;18.80;16.20;;;;;;4718933;30;20052;-85
2023/10/03 05:07:29;;;;;;;33.22;13.85;;;;;;;;;;4719455;30;20510;-85
2023/10/03 05:09:55;;;;;;;27.95;12.45;;;;;;;;;;4704717;30;20044;-84
2023/10/03 05:12:24;;;;;;;24.17;12.70;;;;;;;;;;4704390;30;20072;-85
2023/10/03 05:14:51;;;;;;;29.83;12.27;;;;;;;;;;4705163;30;20573;-85
2023/10/03 05:17:18;;;;;;;43.00;14.15;;;;;;;;;;4719262;30;20059;-86
2023/10/03 05:19:44;;;;;;;26.88;13.25;;;;;;;;;;4690573;30;20096;-85
2023/10/03 05:22:12;;;;;;;35.42;13.82;;;;;;;;;;4719998;30;20044;-84
2023/10/03 05:24:39;;;;;;;33.20;13.98;;;;;;;;;;4704572;30;20061;-86
2023/10/03 05:27:07;;;;;;;35.63;15.20;;;;;;;;;;4721106;30;20520;-83
2023/10/03 05:29:34;;;;;;;32.95;15.25;;;;;;;;;;4737692;30;20049;-86
2023/10/03 05:32:00;;;;;;;29.27;14.57;;;;;;;;;;4737277;30;20056;-86
2023/10/03 05:34:26;;;;;;;30.23;14.13;;;;;;;;;;4721352;30;20377;-86
2023/10/03 05:36:53;;;;;;;36.65;16.95;;;;;;;;;;4736881;30;20055;-86
2023/10/03 05:39:19;;;;;;;42.65;15.77;;;;;;;;;;4706802;30;20056;-89
2023/10/03 05:41:45;;;;;;;39.25;15.85;;;;;;;;;;4721002;30;20061;-87
2023/10/03 05:44:12;;;;;;;29.95;14.90;;;;;;;;;;4706493;30;20049;-86
2023/10/03 05:46:43;;;;;;;32.72;15.95;;;19.10;17.90;;;;;;4720826;30;20084;-87
2023/10/03 05:49:09;;;;;;;33.75;14.77;;;;;;;;;;4677624;30;20127;-86
2023/10/03 05:51:39;;;;;;;28.75;13.70;;;;;;;;;;4720666;30;20048;-86
2023/10/03 05:54:05;;;;;;;36.78;15.05;;;;;;;;;;4692381;30;20463;-86
2023/10/03 05:56:31;;;;;;;29.98;13.98;;;;;;;;;;4706379;30;20064;-86
2023/10/03 05:59:00;;;;;;;22.95;12.15;;;;;;;;;;4720666;30;20092;-85
2023/10/03 06:01:26;;;;;;;30.73;13.30;;;;;;;;;;4706427;30;20052;-87
2023/10/03 06:03:53;;;;;;;35.08;14.30;;;;;;;;;;4691871;30;20139;-86
2023/10/03 06:06:21;;;;;;;23.88;12.25;;;;;;;;;;4692232;30;20060;-87
2023/10/03 06:08:49;;;;;;;28.15;13.68;;;;;;;;;;4691850;30;20191;-88
2023/10/03 06:11:15;;;;;;;25.00;12.52;;;;;;;;;;4691784;30;20105;-88
2023/10/03 06:13:44;;;;;;;22.30;12.57;;;19.00;27.80;;;;;;4720041;30;20057;-87
2023/10/03 06:16:17;;;;;;;22.08;12.23;;;19.20;14.00;;;;;;4706242;30;20057;-88
2023/10/03 06:18:43;;;;;;;23.73;12.40;;;;;;;;;;4706174;30;20052;-85
2023/10/03 06:21:09;;;;;;;21.30;11.95;;;;;;;;;;4705757;30;20051;-88
2023/10/03 06:23:37;;;;;;;21.33;10.60;;;;;;;;;;4705853;30;20044;-85
2023/10/03 06:26:03;;;;;;;25.08;11.93;;;;;;;;;;4705763;30;20427;-84
2023/10/03 06:28:30;;;;;;;25.38;11.85;;;;;;;;;;4714597;30;20049;-85
2023/10/03 06:30:56;;;;;;;22.77;12.70;;;;;;;;;;4713604;30;20060;-85
2023/10/03 06:33:22;;;;;;;23.75;11.63;;;;;;;;;;4723513;30;20048;-92
2023/10/03 06:35:51;;;;;;;17.77;10.63;;;;;;;;;;4693509;30;20056;-91
2023/10/03 06:38:22;;;;;;;19.88;10.75;;;18.90;13.40;;;;;;4725979;30;20079;-85
2023/10/03 06:40:48;;;;;;;23.70;10.88;;;;;;;;;;4710034;30;20060;-83
2023/10/03 06:43:16;;;;;;;16.27;9.50;;;18.80;13.20;;;;;;4726628;30;20056;-83
2023/10/03 06:45:42;;;;;;;23.48;10.63;;;;;;;;;;4709563;30;20048;-87
2023/10/03 06:48:10;;;;;;;20.70;9.95;;;;;;;;;;4708014;30;20106;-87
2023/10/03 06:50:37;;;;;;;28.05;11.63;;;;;;;;;;4695516;30;20137;-89
2023/10/03 06:53:03;;;;;;;22.60;12.60;;;19.10;25.50;;;;;;4711142;30;20065;-91
2023/10/03 06:55:29;;;;;;;24.35;12.32;;;;;;;;;;4693529;30;20490;-89
2023/10/03 06:57:55;;;;;;;23.95;11.30;;;;;;;;;;4708610;30;20103;-87
2023/10/03 07:00:22;;;;;;;24.05;10.15;;;;;;;;;;4691094;30;20044;-85
2023/10/03 07:02:48;;;;;;;23.42;9.45;;;;;;;;;;4720004;30;20048;-84
2023/10/03 07:05:16;;;;;;;23.95;7.82;;;;;;;;;;4690912;30;20040;-86
2023/10/03 07:07:43;;;;;;;29.80;10.98;;;;;;;;;;4719940;30;20147;-87
2023/10/03 07:10:10;;;;;;;21.65;8.68;;;;;;;;;;4691702;30;20125;-87
2023/10/03 07:12:38;;;;;;;25.33;9.82;;;;;;;;;;4704982;30;20069;-85
2023/10/03 07:15:08;;;;;;;32.45;10.20;;;18.60;18.60;;;;;;4734581;30;20049;-83
2023/10/03 07:17:35;;;;;;;22.58;8.13;;;;;;;;;;4719864;30;20044;-84
2023/10/03 07:20:04;;;;;;;23.48;7.43;;;18.70;6.20;;;;;;4705172;30;20048;-84
2023/10/03 07:22:31;;;;;;;19.58;7.40;;;;;;;;;;4705535;30;20510;-83
2023/10/03 07:24:57;;;;;;;21.50;6.45;;;;;;;;;;4719656;30;20098;-82
2023/10/03 07:27:23;;;;;;;14.70;5.82;;;;;;;;;;4719525;30;20143;-85
2023/10/03 07:29:50;;;;;;;16.77;6.00;;;;;;;;;;4690607;30;20118;-83
2023/10/03 07:32:16;;;;;;;17.50;6.35;;;;;;;;;;4704902;30;20507;-86
2023/10/03 07:34:44;;;;;;;15.05;5.18;;;;;;;;;;4704879;30;20500;-84
2023/10/03 07:37:10;;;;;;;17.23;6.22;;;;;;;;;;4719285;30;20104;-83
2023/10/03 07:39:38;;;;;;;9.75;4.72;;;;;;;;;;4719411;30;20197;-83
2023/10/03 07:42:05;;;;;;;16.90;4.28;;;;;;;;;;4690428;30;20084;-83
2023/10/03 07:44:32;;;;;;;12.23;5.20;;;17.80;7.70;;;;;;4704714;30;20460;-82
2023/10/03 07:46:58;;;;;;;13.60;3.70;;;;;;;;;;4720120;30;20052;-86
2023/10/03 07:49:24;;;;;;;10.77;3.08;;;;;;;;;;4712279;30;20051;-86
2023/10/03 07:51:53;;;;;;;10.63;3.47;;;17.70;5.30;;;;;;4710752;30;20053;-84
2023/10/03 07:54:20;;;;;;;8.90;3.38;;;;;;;;;;4709318;30;20052;-82
2023/10/03 07:56:48;;;;;;;11.10;2.92;;;;;;;;;;4724803;30;20051;-89
2023/10/03 07:59:14;;;;;;;16.02;3.88;;;;;;;;;;4697070;30;20054;-83
2023/10/03 08:01:40;;;;;;;7.95;2.60;;;;;;;;;;4696626;30;20434;-87
2023/10/03 08:04:12;;;;;;;8.82;2.67;;;;;;;;;;4725857;30;20048;-88
2023/10/03 08:06:41;;;;;;;11.73;3.70;;;;;;;;;;4726501;30;20063;-86
2023/10/03 08:09:08;;;;;;;6.80;2.10;;;;;;;;;;4728156;30;20063;-88
2023/10/03 08:11:35;;;;;;;7.20;2.17;;;;;;;;;;4713783;30;20074;-90
2023/10/03 08:14:16;;;;;;;6.00;1.67;;;17.20;9.50;;;;;;4713918;30;20571;-85
2023/10/03 08:16:43;;;;;;;10.95;2.45;;;17.10;5.10;;;;;;4730018;30;20053;-87
2023/10/03 08:19:10;;;;;;;7.82;2.05;;;;;;;;;;4716752;30;20048;-84
2023/10/03 08:21:40;;;;;;;5.38;1.60;;;;;;;;;;4716634;30;20052;-87
2023/10/03 08:24:09;;;;;;;3.63;1.45;;;;;;;;;;4712464;30;20057;-83
2023/10/03 08:26:37;;;;;;;7.07;3.17;;;;;;;;;;4709451;30;20522;-82
2023/10/03 08:29:06;;;;;;;5.88;2.10;;;;;;;;;;4708713;30;20052;-85
2023/10/03 08:31:32;;;;;;;9.70;1.90;;;;;;;;;;4708583;30;20116;-91
2023/10/03 08:33:58;;;;;;;7.03;2.13;;;;;;;;;;4708166;30;20075;-85
2023/10/03 08:36:31;;;;;;;7.97;1.70;;;;;;;;;;4709083;30;20099;-85
2023/10/03 08:39:04;;;;;;;8.93;1.90;;;;;;;;;;4709113;30;20057;-82
2023/10/03 08:41:45;;;;;;;10.63;1.67;;;;;;;;;;4709400;30;20522;-84
2023/10/03 08:44:15;;;;;;;7.60;1.38;;;;;;;;;;4709317;30;20063;-89
2023/10/03 08:47:00;;;;;;;7.15;1.25;;;17.00;2.00;;;;;;4709159;30;20478;-85
2023/10/03 08:49:38;;;;;;;6.13;2.25;;;;;;;;;;4722945;30;20055;-83
2023/10/03 08:52:09;;;;;;;2.95;1.10;;;;;;;;;;4704107;30;20056;-81
2023/10/03 08:54:37;;;;;;;10.45;1.30;;;16.80;2.90;;;;;;4718275;30;20059;-83
2023/10/03 08:57:10;;;;;;;9.23;2.25;;;16.50;5.20;;;;;;4703779;30;20118;-83
2023/10/03 08:59:41;;;;;;;9.30;1.83;;;;;;;;;;4719061;30;20067;-83
2023/10/03 09:02:11;;;;;;;3.53;1.15;;;16.50;6.70;;;;;;4724064;30;20453;-85
2023/10/03 09:04:39;;;;;;;5.32;1.15;;;16.40;6.50;;;;;;4740343;30;20056;-82
2023/10/03 09:07:11;;;;;;;0.60;0.52;;;;;;;;;;4739834;30;20045;-84
2023/10/03 09:09:41;;;;;;;4.53;2.10;;;;;;;;;;4725345;30;20052;-83
2023/10/03 09:12:12;;;;;;;1.45;0.80;;;;;;;;;;4710211;30;20099;-84
2023/10/03 09:14:39;;;;;;;6.47;0.93;;;;;;;;;;4740049;30;20048;-83
2023/10/03 09:17:05;;;;;;;3.60;0.90;;;;;;;;;;4740216;30;20096;-83
2023/10/03 09:19:47;;;;;;;1.67;0.50;;;;;;;;;;4723956;30;20464;-84
2023/10/03 09:22:30;;;;;;;0.95;0.70;;;15.70;4.00;;;;;;4740008;30;20053;-85
2023/10/03 09:24:56;;;;;;;4.32;0.80;;;;;;;;;;4709486;30;20507;-85
2023/10/03 09:27:29;;;;;;;2.33;1.45;;;;;;;;;;4709034;30;20048;-83
2023/10/03 09:29:58;;;;;;;2.37;0.60;;;;;;;;;;4709190;30;20057;-87
2023/10/03 09:32:24;;;;;;;0.70;0.70;;;15.60;1.00;;;;;;4723443;30;20511;-86
2023/10/03 09:34:58;;;;;;;2.83;0.60;;;;;;;;;;4709178;30;20099;-83
2023/10/03 09:37:30;;;;;;;4.82;0.60;;;;;;;;;;4723625;30;20083;-85
2023/10/03 09:40:01;;;;;;;3.80;1.55;;;;;;;;;;4709459;30;20056;-84
2023/10/03 09:42:30;;;;;;;2.33;0.73;;;15.70;1.00;;;;;;4709824;30;20079;-86
2023/10/03 09:44:59;;;;;;;0.70;0.43;;;;;;;;;;4723822;30;20066;-82
2023/10/03 09:47:32;;;;;;;0.40;0.40;;;15.80;1.00;;;;;;4723957;30;20048;-84
2023/10/03 09:50:03;;;;;;;0.63;0.50;;;;;;;;;;4723666;30;20060;-82
2023/10/03 09:52:32;;;;;;;1.98;0.50;;;;;;;;;;4709785;30;20139;-86
2023/10/03 09:55:00;;;;;;;3.65;0.70;;;;;;;;;;4709426;30;20399;-83
2023/10/03 09:57:30;;;;;;;3.83;0.70;;;;;;;;;;4708709;30;20056;-85
2023/10/03 09:59:57;;;;;;;1.08;0.70;;;;;;;;;;4708717;30;20059;-83
2023/10/03 10:02:30;;;;;;;2.72;0.90;;;15.50;7.40;;;;;;4723706;30;20052;-85
2023/10/03 10:05:07;;;;;;;6.22;0.70;;;15.30;9.30;;;;;;4723544;30;20137;-82
2023/10/03 10:07:54;;;;;;;3.33;0.90;;;15.50;7.80;;;;;;4723951;30;20569;-86
2023/10/03 10:10:20;;;;;;;4.70;1.05;;;;;;;;;;4723733;30;20103;-85
2023/10/03 10:13:12;;;;;;;3.03;1.17;;;;;;;;;;4721319;30;20064;-86
2023/10/03 10:16:11;;;;;;;5.65;1.35;;;15.30;3.10;;;;;;4721163;30;20052;-87
2023/10/03 10:18:58;;;;;;;5.93;1.38;;;;;;;;;;4706184;30;20052;-86
2023/10/03 10:21:32;;;;;;;5.28;1.70;;;;;;;;;;4706078;30;20052;-83
2023/10/03 10:24:20;;;;;;;6.13;1.23;;;;;;;;;;4720962;30;20056;-82
2023/10/03 10:26:52;;;;;;;4.68;1.50;;;;;;;;;;4706135;30;20257;-85
2023/10/03 10:29:20;;;;;;;4.10;1.83;;;;;;;;;;4706051;30;20052;-86
2023/10/03 10:31:57;;;;;;;4.60;1.48;;;15.40;6.00;;;;;;4720215;30;20519;-85
2023/10/03 10:34:23;;;;;;;4.20;1.27;;;;;;;;;;4705703;30;20523;-85
2023/10/03 10:36:57;;;;;;;6.63;2.00;;;;;;;;;;4706053;30;20132;-86
2023/10/03 10:39:33;;;;;;;3.00;1.20;;;;;;;;;;4706926;30;20045;-85
2023/10/03 10:42:09;;;;;;;2.78;1.35;;;;;;;;;;4706175;30;20061;-86
2023/10/03 10:44:35;;;;;;;3.08;1.45;;;;;;;;;;4691611;30;20059;-86
2023/10/03 10:47:05;;;;;;;4.97;1.27;;;15.60;1.00;;;;;;4720654;30;20521;-86
2023/10/03 10:49:31;;;;;;;4.60;1.77;;;;;;;;;;4691683;30;20072;-86
2023/10/03 10:51:59;;;;;;;8.23;1.60;;;;;;;;;;4705771;30;20045;-85
2023/10/03 10:54:25;;;;;;;4.68;1.60;;;;;;;;;;4715378;30;20086;-87
2023/10/03 10:56:59;;;;;;;6.75;1.83;;;;;;;;;;4714955;30;20045;-96
2023/10/03 10:59:29;;;;;;;4.72;2.80;;;;;;;;;;4723721;30;20056;-89
2023/10/03 11:01:57;;;;;;;4.50;1.63;;;;;;;;;;4707930;30;20059;-83
2023/10/03 11:04:28;;;;;;;7.40;2.03;;;15.40;1.00;;;;;;4739381;30;20064;-87
2023/10/03 11:06:55;;;;;;;9.55;2.28;;;;;;;;;;4712082;30;20045;-85
2023/10/03 11:09:23;;;;;;;18.60;2.30;;;;;;;;;;4715053;30;20434;-94
2023/10/03 11:11:51;;;;;;;3.55;2.78;;;15.40;1.00;;;;;;4701263;30;20060;-94
2023/10/03 11:14:29;;;;;;;5.47;2.20;;;15.40;1.00;;;;;;4713463;30;20063;-88
2023/10/03 11:16:56;;;;;;;5.30;2.00;;;;;;;;;;4725773;30;20522;-85
2023/10/03 11:19:23;;;;;;;5.28;2.25;;;;;;;;;;4697322;30;20052;-89
2023/10/03 11:21:49;;;;;;;6.00;2.00;;;;;;;;;;4724974;30;20055;-96
2023/10/03 11:24:22;;;;;;;3.95;2.05;;;;;;;;;;4724827;30;20148;-90
2023/10/03 11:26:53;;;;;;;18.17;2.67;;;15.30;1.00;;;;;;4712215;30;20118;-94
2023/10/03 11:29:39;;;;;;;6.85;2.42;;;;;;;;;;4710655;30;20291;-84
2023/10/03 11:32:16;;;;;;;8.60;2.72;;;15.20;1.00;;;;;;4723719;30;20055;-87
2023/10/03 11:34:43;;;;;;;6.28;2.45;;;;;;;;;;4724272;30;20053;-89
2023/10/03 11:37:09;;;;;;;3.63;1.90;;;;;;;;;;4727138;30;20201;-82
2023/10/03 11:39:39;;;;;;;8.43;3.22;;;;;;;;;;4715893;30;20437;-85
2023/10/03 11:42:26;;;;;;;5.97;3.53;;;;;;;;;;4700655;30;20068;-83
2023/10/03 11:45:02;;;;;;;9.25;2.88;;;;;;;;;;4709800;30;20103;-90
2023/10/03 11:47:28;;;;;;;4.60;2.58;;;;;;;;;;4709198;30;20086;-88
2023/10/03 11:49:58;;;;;;;4.55;2.50;;;;;;;;;;4724036;30;20074;-90
2023/10/03 11:52:24;;;;;;;5.47;2.03;;;;;;;;;;4695444;30;20061;-90
2023/10/03 11:54:50;;;;;;;4.35;2.38;;;;;;;;;;4709111;30;20044;-84
2023/10/03 11:57:16;;;;;;;8.02;2.47;;;;;;;;;;4709142;30;20144;-82
2023/10/03 11:59:42;;;;;;;5.65;2.50;;;;;;;;;;4695003;30;20522;-89
2023/10/03 12:02:09;;;;;;;9.25;2.38;;;;;;;;;;4725596;30;20127;-87
2023/10/03 12:04:40;;;;;;;9.35;2.38;;;;;;;;;;4712111;30;20106;-88
2023/10/03 12:07:06;;;;;;;5.55;2.58;;;;;;;;;;4712364;30;20060;-91
2023/10/03 12:09:32;;;;;;;7.63;3.38;;;;;;;;;;4710602;30;20393;-94
2023/10/03 12:12:00;;;;;;;6.72;2.47;;;;;;;;;;4724084;30;20063;-83
2023/10/03 12:14:28;;;;;;;6.80;2.63;;;;;;;;;;4709499;30;20061;-88
2023/10/03 12:16:54;;;;;;;8.10;2.40;;;;;;;;;;4723945;30;20049;-90
2023/10/03 12:19:21;;;;;;;9.40;2.28;;;;;;;;;;4696243;30;20048;-95
2023/10/03 12:21:47;;;;;;;8.43;2.15;;;;;;;;;;4727221;30;20061;-94
2023/10/03 12:24:14;;;;;;;3.30;1.70;;;;;;;;;;4729041;30;20083;-95
2023/10/03 12:26:41;;;;;;;5.85;2.15;;;;;;;;;;4730065;30;20091;-90
2023/10/03 12:29:07;;;;;;;5.78;2.22;;;;;;;;;;4714731;30;20143;-91
2023/10/03 12:31:33;;;;;;;8.30;2.20;;;;;;;;;;4726714;30;20049;-94
2023/10/03 12:34:01;;;;;;;9.95;2.35;;;;;;;;;;4695211;30;20044;-93
2023/10/03 12:36:32;;;;;;;4.72;1.80;;;;;;;;;;4707952;30;20056;-94
2023/10/03 12:39:10;;;;;;;12.88;2.88;;;;;;;;;;4707597;30;20057;-93
2023/10/03 12:41:37;;;;;;;4.97;1.83;;;;;;;;;;4693925;30;20539;-85
2023/10/03 12:44:04;;;;;;;3.92;2.33;;;;;;;;;;4707424;30;20052;-92
2023/10/03 12:46:30;;;;;;;6.30;2.10;;;;;;;;;;4706525;30;20053;-87
2023/10/03 12:48:56;;;;;;;8.95;2.33;;;;;;;;;;4693034;30;20403;-91
2023/10/03 12:51:22;;;;;;;8.90;2.40;;;;;;;;;;4721583;30;20493;-94
2023/10/03 12:53:52;;;;;;;6.20;2.10;;;;;;;;;;4708520;30;20080;-92
2023/10/03 12:56:18;;;;;;;5.72;2.08;;;;;;;;;;4724457;30;20048;-90
2023/10/03 12:58:45;;;;;;;8.25;2.58;;;;;;;;;;4708556;30;20529;-93
2023/10/03 13:01:12;;;;;;;8.07;2.30;;;;;;;;;;4693702;30;20049;-96
2023/10/03 13:03:39;;;;;;;8.82;2.85;;;;;;;;;;4723834;30;20044;-94
2023/10/03 13:06:06;;;;;;;8.15;2.17;;;;;;;;;;4708392;30;20102;-85
2023/10/03 13:08:32;;;;;;;9.05;2.75;;;;;;;;;;4706890;30;20108;-93
2023/10/03 13:11:01;;;;;;;5.45;2.00;;;;;;;;;;4707264;30;20143;-91
2023/10/03 13:13:28;;;;;;;6.22;2.20;;;;;;;;;;4707322;30;20072;-87
2023/10/03 13:15:54;;;;;;;8.48;1.92;;;;;;;;;;4708400;30;20063;-92
2023/10/03 13:18:23;;;;;;;6.50;3.95;;;;;;;;;;4706335;30;20135;-90
2023/10/03 13:20:50;;;;;;;5.78;2.13;;;;;;;;;;4740847;30;20059;-91
2023/10/03 13:23:16;;;;;;;10.85;2.47;;;;;;;;;;4724885;30;20044;-91
2023/10/03 13:25:42;;;;;;;13.07;3.60;;;;;;;;;;4739764;30;20052;-92
2023/10/03 13:28:10;;;;;;;4.82;2.58;;;;;;;;;;4740781;30;20059;-92
2023/10/03 13:30:36;;;;;;;5.00;2.15;;;;;;;;;;4708029;30;20056;-92
2023/10/03 13:33:03;;;;;;;5.85;2.10;;;;;;;;;;4693814;30;20091;-89
2023/10/03 13:35:30;;;;;;;5.65;2.22;;;;;;;;;;4739133;30;20049;-89
2023/10/03 13:37:57;;;;;;;9.50;2.20;;;;;;;;;;4721834;30;20060;-92
2023/10/03 13:40:23;;;;;;;4.32;1.77;;;;;;;;;;4709931;30;20049;-95
2023/10/03 13:42:49;;;;;;;6.70;2.08;;;;;;;;;;4723504;30;20049;-89
2023/10/03 13:45:19;;;;;;;9.82;2.17;;;;;;;;;;4710574;30;20053;-92
2023/10/03 13:47:45;;;;;;;10.60;2.20;;;;;;;;;;4729543;30;20060;-90
2023/10/03 13:50:12;;;;;;;8.52;1.92;;;;;;;;;;4700275;30;20126;-85
2023/10/03 13:52:41;;;;;;;4.75;1.92;;;;;;;;;;4715175;30;20143;-85
2023/10/03 13:55:09;;;;;;;5.57;1.83;;;;;;;;;;4713683;30;20577;-90
2023/10/03 13:57:35;;;;;;;3.72;1.77;;;;;;;;;;4712048;30;20071;-90
2023/10/03 14:00:06;;;;;;;9.35;1.92;;;;;;;;;;4710886;30;20044;-95
2023/10/03 14:02:34;;;;;;;6.72;2.55;;;;;;;;;;4724515;30;20056;-86
2023/10/03 14:05:03;;;;;;;4.40;1.80;;;;;;;;;;4710933;30;20059;-89
2023/10/03 14:07:29;;;;;;;5.95;2.13;;;;;;;;;;4712637;30;20410;-83
2023/10/03 14:09:57;;;;;;;6.25;1.40;;;;;;;;;;4694878;30;20057;-92
2023/10/03 14:12:23;;;;;;;5.68;1.83;;;;;;;;;;4707528;30;20068;-87
2023/10/03 14:14:50;;;;;;;9.45;2.45;;;;;;;;;;4720683;30;20388;-86
2023/10/03 14:17:16;;;;;;;6.25;2.20;;;;;;;;;;4720885;30;20088;-84